createdAt,value
2018-07-06T00:01:20.414Z,6.37
2018-07-06T00:04:00.518Z,5.97
2018-07-06T00:06:40.856Z,5.87
2018-07-06T00:09:21.091Z,5.80
2018-07-06T00:12:01.396Z,5.77
2018-07-06T00:14:41.638Z,5.80
2018-07-06T00:17:21.850Z,5.70
2018-07-06T00:20:02.041Z,6.37
2018-07-06T00:22:42.360Z,6.73
2018-07-06T00:25:22.608Z,6.43
2018-07-06T00:27:56.666Z,6.40
2018-07-06T00:30:36.960Z,6.40
2018-07-06T00:33:17.200Z,5.47
2018-07-06T00:35:57.271Z,6.03
2018-07-06T00:38:37.542Z,6.30
2018-07-06T00:41:17.734Z,6.70
2018-07-06T00:43:57.944Z,7.07
2018-07-06T00:46:38.090Z,6.40
2018-07-06T00:49:18.191Z,7.37
2018-07-06T00:51:58.404Z,7.27
2018-07-06T00:54:38.645Z,7.60
2018-07-06T00:57:19.196Z,7.23
2018-07-06T00:59:59.314Z,7.60
2018-07-06T01:02:39.467Z,7.40
2018-07-06T01:05:19.571Z,7.23
2018-07-06T01:07:59.656Z,7.53
2018-07-06T01:10:39.772Z,8.10
2018-07-06T01:13:19.929Z,7.90
2018-07-06T01:16:00.165Z,7.20
2018-07-06T01:18:40.473Z,7.13
2018-07-06T01:21:20.535Z,7.57
2018-07-06T01:24:00.582Z,7.43
2018-07-06T01:26:40.756Z,8.87
2018-07-06T01:29:20.901Z,8.20
2018-07-06T01:32:01.049Z,8.57
2018-07-06T01:34:41.411Z,8.03
2018-07-06T01:37:21.615Z,7.87
2018-07-06T01:40:01.690Z,8.93
2018-07-06T01:42:41.707Z,9.87
2018-07-06T01:45:21.959Z,9.37
2018-07-06T01:48:02.195Z,8.00
2018-07-06T01:50:36.352Z,7.93
2018-07-06T01:53:16.450Z,8.83
2018-07-06T01:55:56.756Z,8.40
2018-07-06T01:58:37.005Z,8.47
2018-07-06T02:01:17.179Z,8.20
2018-07-06T02:03:57.525Z,7.37
2018-07-06T02:06:37.612Z,9.40
2018-07-06T02:09:17.786Z,7.40
2018-07-06T02:11:57.745Z,8.77
2018-07-06T02:14:38.019Z,8.93
2018-07-06T02:17:18.231Z,8.80
2018-07-06T02:19:58.476Z,9.07
2018-07-06T02:22:38.624Z,9.27
2018-07-06T02:25:18.760Z,9.97
2018-07-06T02:27:59.021Z,9.37
2018-07-06T02:30:39.196Z,9.40
2018-07-06T02:33:19.456Z,10.33
2018-07-06T02:35:59.583Z,8.80
2018-07-06T02:38:39.692Z,8.83
2018-07-06T02:41:19.972Z,8.73
2018-07-06T02:44:00.237Z,8.30
2018-07-06T02:46:40.379Z,9.10
2018-07-06T02:49:20.618Z,8.43
2018-07-06T02:52:00.773Z,9.50
2018-07-06T02:54:41.076Z,9.60
2018-07-06T02:57:21.167Z,10.50
2018-07-06T03:00:01.471Z,10.73
2018-07-06T03:02:41.648Z,9.20
2018-07-06T03:05:21.732Z,9.37
2018-07-06T03:08:01.949Z,9.83
2018-07-06T03:10:42.183Z,9.53
2018-07-06T03:13:22.443Z,9.60
2018-07-06T03:16:02.604Z,9.80
2018-07-06T03:18:42.650Z,9.73
2018-07-06T03:21:16.821Z,10.17
2018-07-06T03:23:57.127Z,9.90
2018-07-06T03:26:37.282Z,9.10
2018-07-06T03:29:17.833Z,10.83
2018-07-06T03:31:58.220Z,9.57
2018-07-06T03:34:38.358Z,10.67
2018-07-06T03:37:18.669Z,8.33
2018-07-06T03:39:58.780Z,10.63
2018-07-06T03:42:39.044Z,8.90
2018-07-06T03:45:19.247Z,8.67
2018-07-06T03:47:59.552Z,10.07
2018-07-06T03:50:39.820Z,9.10
2018-07-06T03:53:19.973Z,10.20
2018-07-06T03:56:00.154Z,9.63
2018-07-06T03:58:40.412Z,10.60
2018-07-06T04:01:20.620Z,8.63
2018-07-06T04:04:00.861Z,10.57
2018-07-06T04:06:40.822Z,10.33
2018-07-06T04:09:21.309Z,11.80
2018-07-06T04:12:01.367Z,11.60
2018-07-06T04:14:41.608Z,9.60
2018-07-06T04:17:22.054Z,9.57
2018-07-06T04:20:02.366Z,9.10
2018-07-06T04:22:42.694Z,8.47
2018-07-06T04:25:22.951Z,9.03
2018-07-06T04:28:03.167Z,9.27
2018-07-06T04:30:43.376Z,9.20
2018-07-06T04:33:23.625Z,9.70
2018-07-06T04:36:03.791Z,8.93
2018-07-06T04:38:44.026Z,10.57
2018-07-06T04:41:24.259Z,10.73
2018-07-06T04:44:04.500Z,11.13
2018-07-06T04:46:44.566Z,10.73
2018-07-06T04:49:24.648Z,10.77
2018-07-06T04:52:05.279Z,11.37
2018-07-06T04:54:45.424Z,11.07
2018-07-06T04:57:25.639Z,11.90
2018-07-06T05:00:05.887Z,11.43
2018-07-06T05:02:46.175Z,11.23
2018-07-06T05:05:26.272Z,12.03
2018-07-06T05:08:06.536Z,13.20
2018-07-06T05:10:46.637Z,16.77
2018-07-06T05:13:26.888Z,13.60
2018-07-06T05:16:07.059Z,11.90
2018-07-06T05:18:47.299Z,11.93
2018-07-06T05:21:27.646Z,10.53
2018-07-06T05:24:07.727Z,11.00
2018-07-06T05:26:47.965Z,10.50
2018-07-06T05:29:28.035Z,10.13
2018-07-06T05:32:08.253Z,10.53
2018-07-06T05:34:48.377Z,9.97
2018-07-06T05:37:28.612Z,9.47
2018-07-06T05:40:08.904Z,9.10
2018-07-06T05:42:49.143Z,6.87
2018-07-06T05:45:29.226Z,7.83
2018-07-06T05:48:09.411Z,7.30
2018-07-06T05:50:49.595Z,6.23
2018-07-06T05:53:29.706Z,5.60
2018-07-06T05:56:09.932Z,5.83
2018-07-06T05:58:50.182Z,5.73
2018-07-06T06:01:30.361Z,5.90
2018-07-06T06:04:10.464Z,5.90
2018-07-06T06:06:50.688Z,5.97
2018-07-06T06:09:19.960Z,5.90
2018-07-06T06:11:49.224Z,5.10
2018-07-06T06:14:18.505Z,5.07
2018-07-06T06:16:47.835Z,4.97
2018-07-06T06:19:17.083Z,5.57
2018-07-06T06:21:46.616Z,5.03
2018-07-06T06:24:15.933Z,4.43
2018-07-06T06:26:45.183Z,4.60
2018-07-06T06:29:14.482Z,5.40
2018-07-06T06:31:43.970Z,4.53
2018-07-06T06:34:13.339Z,4.17
2018-07-06T06:36:42.675Z,4.20
2018-07-06T06:39:12.077Z,4.97
2018-07-06T06:41:41.597Z,4.63
2018-07-06T06:44:10.982Z,4.73
2018-07-06T06:46:42.460Z,4.63
2018-07-06T06:49:11.775Z,4.87
2018-07-06T06:51:41.211Z,4.53
2018-07-06T06:54:10.489Z,4.80
2018-07-06T06:56:39.931Z,3.80
2018-07-06T06:59:09.289Z,3.93
2018-07-06T07:01:38.611Z,4.17
2018-07-06T07:04:07.904Z,3.53
2018-07-06T07:06:37.971Z,4.57
2018-07-06T07:09:07.463Z,4.10
2018-07-06T07:11:37.100Z,3.87
2018-07-06T07:14:06.629Z,4.20
2018-07-06T07:16:35.903Z,3.90
2018-07-06T07:19:05.216Z,2.80
2018-07-06T07:21:34.659Z,4.17
2018-07-06T07:24:04.029Z,4.10
2018-07-06T07:26:33.459Z,4.90
2018-07-06T07:29:02.754Z,4.17
2018-07-06T07:31:32.159Z,4.07
2018-07-06T07:34:01.498Z,3.47
2018-07-06T07:36:34.754Z,3.53
2018-07-06T07:39:05.077Z,4.03
2018-07-06T07:41:34.534Z,4.63
2018-07-06T07:44:03.767Z,3.77
2018-07-06T07:46:33.098Z,4.13
2018-07-06T07:49:02.404Z,3.63
2018-07-06T07:52:05.741Z,3.77
2018-07-06T07:54:41.971Z,3.00
2018-07-06T07:57:11.358Z,2.93
2018-07-06T07:59:41.250Z,2.47
2018-07-06T08:02:10.514Z,2.50
2018-07-06T08:04:39.746Z,2.53
2018-07-06T08:07:08.811Z,2.70
2018-07-06T08:09:38.310Z,2.50
2018-07-06T08:12:07.406Z,3.00
2018-07-06T08:14:36.782Z,2.47
2018-07-06T08:17:05.589Z,2.70
2018-07-06T08:19:34.697Z,2.40
2018-07-06T08:22:03.754Z,2.50
2018-07-06T08:24:32.818Z,3.20
2018-07-06T08:27:01.851Z,2.93
2018-07-06T08:29:30.918Z,2.80
2018-07-06T08:32:00.016Z,3.00
2018-07-06T08:34:40.095Z,2.90
2018-07-06T08:37:31.081Z,3.30
2018-07-06T08:40:00.578Z,2.93
2018-07-06T08:42:31.689Z,2.93
2018-07-06T08:45:01.374Z,2.90
2018-07-06T08:47:30.481Z,2.93
2018-07-06T08:50:00.293Z,2.73
2018-07-06T08:52:29.478Z,2.60
2018-07-06T08:54:58.521Z,2.50
2018-07-06T08:57:28.726Z,3.70
2018-07-06T08:59:57.803Z,3.43
2018-07-06T09:02:27.295Z,3.47
2018-07-06T09:04:57.148Z,3.17
2018-07-06T09:07:26.318Z,2.50
2018-07-06T09:09:56.146Z,2.97
2018-07-06T09:12:25.203Z,2.93
2018-07-06T09:14:54.337Z,2.80
2018-07-06T09:17:23.747Z,2.80
2018-07-06T09:19:53.955Z,2.67
2018-07-06T09:22:22.683Z,2.50
2018-07-06T09:24:53.078Z,3.07
2018-07-06T09:27:22.200Z,3.20
2018-07-06T09:29:51.270Z,3.27
2018-07-06T09:32:20.322Z,3.33
2018-07-06T09:34:49.540Z,2.63
2018-07-06T09:37:18.630Z,3.03
2018-07-06T09:39:48.599Z,3.20
2018-07-06T09:42:18.206Z,3.13
2018-07-06T09:44:47.310Z,2.77
2018-07-06T09:47:16.551Z,2.73
2018-07-06T09:49:45.643Z,3.20
2018-07-06T09:52:14.766Z,3.10
2018-07-06T09:54:43.804Z,2.97
2018-07-06T09:57:12.945Z,3.03
2018-07-06T09:59:42.011Z,3.17
2018-07-06T10:02:11.059Z,3.40
2018-07-06T10:04:40.139Z,3.57
2018-07-06T10:07:09.182Z,3.17
2018-07-06T10:09:38.550Z,3.30
2018-07-06T10:12:07.658Z,3.13
2018-07-06T10:14:36.898Z,2.80
2018-07-06T10:17:06.214Z,2.83
2018-07-06T10:19:35.963Z,3.20
2018-07-06T10:22:06.035Z,2.63
2018-07-06T10:24:35.266Z,3.00
2018-07-06T10:27:04.636Z,2.50
2018-07-06T10:29:46.572Z,2.80
2018-07-06T10:32:22.016Z,2.53
2018-07-06T10:34:51.338Z,2.20
2018-07-06T10:37:20.973Z,2.73
2018-07-06T10:39:50.990Z,2.10
2018-07-06T10:42:20.243Z,2.80
2018-07-06T10:44:49.642Z,2.43
2018-07-06T10:47:19.057Z,3.12
2018-07-06T10:49:48.480Z,2.90
2018-07-06T10:52:18.379Z,2.40
2018-07-06T10:54:48.328Z,2.40
2018-07-06T10:57:17.667Z,2.00
2018-07-06T10:59:47.051Z,2.50
2018-07-06T11:02:16.442Z,2.50
2018-07-06T11:04:45.784Z,2.45
2018-07-06T11:07:15.168Z,2.77
2018-07-06T11:09:44.574Z,3.10
2018-07-06T11:12:13.956Z,2.40
2018-07-06T11:14:43.311Z,2.75
2018-07-06T11:17:12.555Z,2.85
2018-07-06T11:19:41.932Z,2.65
2018-07-06T11:22:11.250Z,2.70
2018-07-06T11:24:40.571Z,2.85
2018-07-06T11:27:09.922Z,2.50
2018-07-06T11:29:39.258Z,2.92
2018-07-06T11:32:08.613Z,2.92
2018-07-06T11:34:38.008Z,2.27
2018-07-06T11:37:07.371Z,2.50
2018-07-06T11:39:36.784Z,2.60
2018-07-06T11:42:06.180Z,2.33
2018-07-06T11:44:35.462Z,2.62
2018-07-06T11:47:04.890Z,2.60
2018-07-06T11:49:40.564Z,2.70
2018-07-06T11:52:09.915Z,2.60
2018-07-06T11:54:39.259Z,2.35
2018-07-06T11:57:08.613Z,2.55
2018-07-06T11:59:37.896Z,2.70
2018-07-06T12:02:07.251Z,3.10
2018-07-06T12:04:36.742Z,2.77
2018-07-06T12:07:06.035Z,2.70
2018-07-06T12:09:35.405Z,2.80
2018-07-06T12:12:04.742Z,2.87
2018-07-06T12:14:34.075Z,2.35
2018-07-06T12:17:03.376Z,2.40
2018-07-06T12:19:32.685Z,2.70
2018-07-06T12:22:02.061Z,2.67
2018-07-06T12:24:31.387Z,2.33
2018-07-06T12:27:00.746Z,2.25
2018-07-06T12:29:30.176Z,2.75
2018-07-06T12:31:59.543Z,2.30
2018-07-06T12:34:28.875Z,2.90
2018-07-06T12:36:58.352Z,2.90
2018-07-06T12:39:27.660Z,2.80
2018-07-06T12:41:57.078Z,2.50
2018-07-06T12:44:26.477Z,2.10
2018-07-06T12:46:55.877Z,2.30
2018-07-06T12:49:25.249Z,2.25
2018-07-06T12:51:54.548Z,2.50
2018-07-06T12:54:23.889Z,2.08
2018-07-06T12:56:53.233Z,1.85
2018-07-06T12:59:22.559Z,2.00
2018-07-06T13:01:51.881Z,2.40
2018-07-06T13:04:21.227Z,2.47
2018-07-06T13:06:50.506Z,2.10
2018-07-06T13:09:19.820Z,2.45
2018-07-06T13:11:49.228Z,2.50
2018-07-06T13:14:18.547Z,2.00
2018-07-06T13:16:47.884Z,2.85
2018-07-06T13:19:17.191Z,2.37
2018-07-06T13:21:47.296Z,2.30
2018-07-06T13:24:16.680Z,2.40
2018-07-06T13:26:46.048Z,2.10
2018-07-06T13:29:15.380Z,2.85
2018-07-06T13:31:44.671Z,2.27
2018-07-06T13:34:13.410Z,2.67
2018-07-06T13:36:42.774Z,2.55
2018-07-06T13:39:12.248Z,2.45
2018-07-06T13:41:41.549Z,2.25
2018-07-06T13:44:10.804Z,2.55
2018-07-06T13:46:40.155Z,2.08
2018-07-06T13:49:09.503Z,2.45
2018-07-06T13:51:38.871Z,2.37
2018-07-06T13:54:08.285Z,2.58
2018-07-06T13:56:37.647Z,2.05
2018-07-06T13:59:07.151Z,2.35
2018-07-06T14:01:36.471Z,2.22
2018-07-06T14:04:05.909Z,2.02
2018-07-06T14:06:35.211Z,1.90
2018-07-06T14:09:04.635Z,1.60
2018-07-06T14:11:33.951Z,1.98
2018-07-06T14:14:03.425Z,1.67
2018-07-06T14:16:32.799Z,1.98
2018-07-06T14:19:02.191Z,2.10
2018-07-06T14:21:31.075Z,1.95
2018-07-06T14:23:59.910Z,2.05
2018-07-06T14:26:28.677Z,2.00
2018-07-06T14:28:57.598Z,1.75
2018-07-06T14:31:26.716Z,2.02
2018-07-06T14:33:55.813Z,2.40
2018-07-06T14:36:24.559Z,1.82
2018-07-06T14:38:53.386Z,1.65
2018-07-06T14:41:32.465Z,1.75
2018-07-06T14:44:01.257Z,1.75
2018-07-06T14:46:30.041Z,1.75
2018-07-06T14:48:58.818Z,1.90
2018-07-06T14:51:28.019Z,2.08
2018-07-06T14:53:56.806Z,1.98
2018-07-06T14:56:25.673Z,2.02
2018-07-06T14:58:54.526Z,2.17
2018-07-06T15:01:23.250Z,2.30
2018-07-06T15:03:52.004Z,2.00
2018-07-06T15:06:20.730Z,2.05
2018-07-06T15:08:49.517Z,2.25
2018-07-06T15:11:18.300Z,2.50
2018-07-06T15:13:47.104Z,2.50
2018-07-06T15:16:15.868Z,2.47
2018-07-06T15:18:44.632Z,2.62
2018-07-06T15:21:13.477Z,2.60
2018-07-06T15:23:42.310Z,3.00
2018-07-06T15:26:11.102Z,2.83
2018-07-06T15:28:39.938Z,2.92
2018-07-06T15:31:08.810Z,3.37
2018-07-06T15:33:37.621Z,3.20
2018-07-06T15:36:06.392Z,2.52
2018-07-06T15:38:35.132Z,2.72
2018-07-06T15:41:15.898Z,2.87
2018-07-06T15:43:44.731Z,2.77
2018-07-06T15:46:13.570Z,3.08
2018-07-06T15:48:42.417Z,3.20
2018-07-06T15:51:11.249Z,3.83
2018-07-06T15:53:40.078Z,3.52
2018-07-06T15:56:08.898Z,3.60
2018-07-06T15:58:37.723Z,3.52
2018-07-06T16:01:06.548Z,3.92
2018-07-06T16:03:35.377Z,4.12
2018-07-06T16:06:04.299Z,4.17
2018-07-06T16:08:33.050Z,4.37
2018-07-06T16:11:01.831Z,4.30
2018-07-06T16:13:36.946Z,3.83
2018-07-06T16:16:05.673Z,7.80
2018-07-06T16:18:34.505Z,18.17
2018-07-06T16:21:03.353Z,12.18
2018-07-06T16:23:32.223Z,11.75
2018-07-06T16:26:01.070Z,5.40
2018-07-06T16:28:30.158Z,6.22
2018-07-06T16:30:58.988Z,4.35
2018-07-06T16:33:27.801Z,2.92
2018-07-06T16:35:56.604Z,2.50
2018-07-06T16:38:25.447Z,2.80
2018-07-06T16:40:54.218Z,2.37
2018-07-06T16:43:22.955Z,2.92
2018-07-06T16:45:51.738Z,2.92
2018-07-06T16:48:20.520Z,3.22
2018-07-06T16:50:49.311Z,2.83
2018-07-06T16:53:18.055Z,2.87
2018-07-06T16:55:46.729Z,2.52
2018-07-06T16:58:17.158Z,2.98
2018-07-06T17:00:45.947Z,3.10
2018-07-06T17:03:14.726Z,3.00
2018-07-06T17:05:43.589Z,3.00
2018-07-06T17:08:12.381Z,3.12
2018-07-06T17:10:41.144Z,3.60
2018-07-06T17:13:10.007Z,3.17
2018-07-06T17:15:38.904Z,2.60
2018-07-06T17:18:07.647Z,2.92
2018-07-06T17:20:36.343Z,2.85
2018-07-06T17:23:05.356Z,2.75
2018-07-06T17:25:34.097Z,3.12
2018-07-06T17:28:02.882Z,2.95
2018-07-06T17:30:31.721Z,3.05
2018-07-06T17:33:00.451Z,3.10
2018-07-06T17:35:29.234Z,2.90
2018-07-06T17:37:58.059Z,2.80
2018-07-06T17:40:27.446Z,3.05
2018-07-06T17:42:56.827Z,3.35
2018-07-06T17:45:26.097Z,3.00
2018-07-06T17:47:55.341Z,3.27
2018-07-06T17:50:24.804Z,3.52
2018-07-06T17:52:54.074Z,3.40
2018-07-06T17:55:23.416Z,3.47
2018-07-06T17:57:52.799Z,3.40
2018-07-06T18:00:22.191Z,3.60
2018-07-06T18:02:51.726Z,3.05
2018-07-06T18:05:21.192Z,3.27
2018-07-06T18:07:50.632Z,3.35
2018-07-06T18:10:20.058Z,3.30
2018-07-06T18:12:49.373Z,3.35
2018-07-06T18:15:19.376Z,3.63
2018-07-06T18:17:49.237Z,3.50
2018-07-06T18:20:18.727Z,3.30
2018-07-06T18:22:48.913Z,3.10
2018-07-06T18:25:18.212Z,3.50
2018-07-06T18:27:47.695Z,3.40
2018-07-06T18:30:20.979Z,3.67
2018-07-06T18:32:49.844Z,3.77
2018-07-06T18:35:19.168Z,3.37
2018-07-06T18:37:48.571Z,3.50
2018-07-06T18:40:17.954Z,3.60
2018-07-06T18:42:47.489Z,3.43
2018-07-06T18:45:16.788Z,3.63
2018-07-06T18:47:46.043Z,3.67
2018-07-06T18:50:15.353Z,3.63
2018-07-06T18:52:44.814Z,3.37
2018-07-06T18:55:14.182Z,3.33
2018-07-06T18:57:43.505Z,3.33
2018-07-06T19:00:12.852Z,3.37
2018-07-06T19:02:42.391Z,3.33
2018-07-06T19:05:11.861Z,3.90
2018-07-06T19:07:41.168Z,2.90
2018-07-06T19:10:10.640Z,3.13
2018-07-06T19:12:40.112Z,2.80
2018-07-06T19:15:09.581Z,3.23
2018-07-06T19:17:39.049Z,3.53
2018-07-06T19:20:08.439Z,3.40
2018-07-06T19:22:37.778Z,3.37
2018-07-06T19:25:07.080Z,3.50
2018-07-06T19:27:36.619Z,3.60
2018-07-06T19:30:18.653Z,3.40
2018-07-06T19:32:47.954Z,4.30
2018-07-06T19:35:17.422Z,3.70
2018-07-06T19:37:46.819Z,3.27
2018-07-06T19:40:19.834Z,3.63
2018-07-06T19:42:49.096Z,3.47
2018-07-06T19:45:18.591Z,3.67
2018-07-06T19:47:47.906Z,3.55
2018-07-06T19:50:17.328Z,3.63
2018-07-06T19:52:46.603Z,3.90
2018-07-06T19:55:16.211Z,3.73
2018-07-06T19:57:45.691Z,3.47
2018-07-06T20:00:15.078Z,3.23
2018-07-06T20:02:44.299Z,3.60
2018-07-06T20:05:13.677Z,3.23
2018-07-06T20:07:43.155Z,3.47
2018-07-06T20:10:12.474Z,4.63
2018-07-06T20:12:41.720Z,4.07
2018-07-06T20:15:11.164Z,4.37
2018-07-06T20:17:40.459Z,3.77
2018-07-06T20:20:10.332Z,3.30
2018-07-06T20:22:39.680Z,3.07
2018-07-06T20:25:09.031Z,3.53
2018-07-06T20:27:38.261Z,3.50
2018-07-06T20:30:07.602Z,3.17
2018-07-06T20:32:36.814Z,3.30
2018-07-06T20:35:06.186Z,3.80
2018-07-06T20:37:35.547Z,3.70
2018-07-06T20:40:04.995Z,3.63
2018-07-06T20:42:34.291Z,4.27
2018-07-06T20:45:03.614Z,3.10
2018-07-06T20:47:32.899Z,3.77
2018-07-06T20:50:02.233Z,4.13
2018-07-06T20:52:31.536Z,3.77
2018-07-06T20:55:00.727Z,4.33
2018-07-06T20:57:30.116Z,3.67
2018-07-06T20:59:59.343Z,3.60
2018-07-06T21:02:28.860Z,3.13
2018-07-06T21:04:58.189Z,3.67
2018-07-06T21:07:27.498Z,3.37
2018-07-06T21:09:56.787Z,3.90
2018-07-06T21:12:26.334Z,3.33
2018-07-06T21:14:55.910Z,3.83
2018-07-06T21:17:25.207Z,3.57
2018-07-06T21:19:54.661Z,4.20
2018-07-06T21:22:23.997Z,3.57
2018-07-06T21:24:53.702Z,3.80
2018-07-06T21:27:23.012Z,3.90
2018-07-06T21:29:52.272Z,3.47
2018-07-06T21:32:21.629Z,4.47
2018-07-06T21:34:50.858Z,4.03
2018-07-06T21:37:20.224Z,3.17
2018-07-06T21:39:49.608Z,4.03
2018-07-06T21:42:18.851Z,3.93
2018-07-06T21:44:48.531Z,3.80
2018-07-06T21:47:17.307Z,3.20
2018-07-06T21:49:46.571Z,4.03
2018-07-06T21:52:15.842Z,4.53
2018-07-06T21:54:45.187Z,3.83
2018-07-06T21:57:14.571Z,3.63
2018-07-06T21:59:43.895Z,3.90
2018-07-06T22:02:16.214Z,4.00
2018-07-06T22:04:47.688Z,3.73
2018-07-06T22:07:17.435Z,4.50
2018-07-06T22:09:46.795Z,4.10
2018-07-06T22:12:16.075Z,3.63
2018-07-06T22:14:45.379Z,3.80
2018-07-06T22:17:14.751Z,3.33
2018-07-06T22:19:44.073Z,3.50
2018-07-06T22:22:13.346Z,3.70
2018-07-06T22:24:42.652Z,3.53
2018-07-06T22:27:11.960Z,3.43
2018-07-06T22:29:40.706Z,4.10
2018-07-06T22:32:10.039Z,4.23
2018-07-06T22:34:39.358Z,4.23
2018-07-06T22:37:08.736Z,3.93
2018-07-06T22:39:38.071Z,4.53
2018-07-06T22:42:07.398Z,5.03
2018-07-06T22:44:36.671Z,3.73
2018-07-06T22:47:06.039Z,4.63
2018-07-06T22:49:35.319Z,4.50
2018-07-06T22:52:04.636Z,4.87
2018-07-06T22:54:34.812Z,4.60
2018-07-06T22:57:04.107Z,3.87
2018-07-06T22:59:33.394Z,4.60
2018-07-06T23:02:02.664Z,3.80
2018-07-06T23:04:31.937Z,3.90
2018-07-06T23:07:01.224Z,4.17
2018-07-06T23:09:30.543Z,3.30
2018-07-06T23:11:59.805Z,3.47
2018-07-06T23:14:29.154Z,3.93
2018-07-06T23:16:58.462Z,4.20
2018-07-06T23:19:27.787Z,4.20
2018-07-06T23:21:57.087Z,4.10
2018-07-06T23:24:26.389Z,3.50
2018-07-06T23:26:55.627Z,3.97
2018-07-06T23:29:24.980Z,4.77
2018-07-06T23:31:54.325Z,6.07
2018-07-06T23:34:23.583Z,6.30
2018-07-06T23:36:52.895Z,5.77
2018-07-06T23:39:22.208Z,5.43
2018-07-06T23:41:51.543Z,5.17
2018-07-06T23:44:20.770Z,5.63
2018-07-06T23:46:50.098Z,6.20
2018-07-06T23:49:19.305Z,4.83
2018-07-06T23:51:48.561Z,4.90
2018-07-06T23:54:17.871Z,4.40
2018-07-06T23:56:47.143Z,4.37
2018-07-06T23:59:16.407Z,4.30
